Augusta State Airport Augusta US
ICAO: KAUG
IATA: AUG
Category: Medium
Scheduled Services: Yes

Elevation: 352 ft
TransAlt. 18000 ft.

Airport Communications:
PORTLAND APP/DEP:128.35
ASOS:118.325
CLNC DEL:119.95
BANGOR RDO:122.6
CTAF/UNICOM:123

KAUG Zoom In..

If you have problems with the map follow the link
https://www.worldairports.se/pages/airport.php?
ICAO=KAUG

Runways:

(A) RW 08 length 2703 ft width 75 ft
---- / hdg 80

(B) RW 17 length 5001 ft width 100 ft
ILS 108.70 / hdg 171

(C) RW 26 length 2703 ft width 75 ft
---- / hdg 260

(D) RW 35 length 5001 ft width 100 ft
---- / hdg 351

Location; KAUG
Day. 14 / Time. 11.53 Zulu
* Altimeter: 30.05
* Temperature: -07° c. -19.4°f.
* Wind from: 280° Speed 14 kn with Gusts up to 26 kn.
Dewpoint: -15° c.
Visibility: 10 Statute Miles.
Clouds: Clear (automated report).

KAUG 141153Z AUTO 28014G26KT 10SM CLR M07/M15 A3005 RMK AO2 PK WND 28034/1105 SLP182 70081 T10721150 11017 21072 53032


Wind From 280°
Speed 14 kn.

 
 
jpsmedia.com for Web Design worldairports.se 2018   terms of use